sensor_id;sensor_type;location;lat;lon;timestamp;temperature;humidity
73322;DHT22;61549;37.044;22.128;2022-09-09T00:02:01;25.80;41.10
73322;DHT22;61549;37.044;22.128;2022-09-09T00:04:30;25.70;41.00
73322;DHT22;61549;37.044;22.128;2022-09-09T00:07:28;25.80;41.20
73322;DHT22;61549;37.044;22.128;2022-09-09T00:15:57;25.80;41.30
73322;DHT22;61549;37.044;22.128;2022-09-09T00:18:50;25.80;40.80
73322;DHT22;61549;37.044;22.128;2022-09-09T00:21:18;25.70;40.40
73322;DHT22;61549;37.044;22.128;2022-09-09T00:23:50;25.60;40.80
73322;DHT22;61549;37.044;22.128;2022-09-09T00:26:32;25.60;40.90
73322;DHT22;61549;37.044;22.128;2022-09-09T00:31:29;25.50;40.50
73322;DHT22;61549;37.044;22.128;2022-09-09T00:34:32;25.40;41.10
73322;DHT22;61549;37.044;22.128;2022-09-09T00:36:52;25.30;40.90
73322;DHT22;61549;37.044;22.128;2022-09-09T00:39:31;25.30;40.90
73322;DHT22;61549;37.044;22.128;2022-09-09T00:42:17;25.20;40.70
73322;DHT22;61549;37.044;22.128;2022-09-09T00:55:50;25.10;41.40
73322;DHT22;61549;37.044;22.128;2022-09-09T00:58:19;25.00;41.70
73322;DHT22;61549;37.044;22.128;2022-09-09T01:01:00;25.00;41.90
73322;DHT22;61549;37.044;22.128;2022-09-09T01:03:38;25.00;42.00
73322;DHT22;61549;37.044;22.128;2022-09-09T01:06:30;25.10;41.80
73322;DHT22;61549;37.044;22.128;2022-09-09T01:09:13;25.10;41.10
73322;DHT22;61549;37.044;22.128;2022-09-09T01:17:18;25.00;41.00
73322;DHT22;61549;37.044;22.128;2022-09-09T01:28:16;24.80;40.60
73322;DHT22;61549;37.044;22.128;2022-09-09T01:30:44;24.70;40.50
73322;DHT22;61549;37.044;22.128;2022-09-09T01:33:15;24.70;40.90
73322;DHT22;61549;37.044;22.128;2022-09-09T01:35:52;24.70;41.10
73322;DHT22;61549;37.044;22.128;2022-09-09T01:38:22;24.60;41.40
73322;DHT22;61549;37.044;22.128;2022-09-09T01:40:50;24.60;41.50
73322;DHT22;61549;37.044;22.128;2022-09-09T01:43:21;24.60;41.40
73322;DHT22;61549;37.044;22.128;2022-09-09T01:45:50;24.60;40.90
73322;DHT22;61549;37.044;22.128;2022-09-09T01:48:18;24.60;40.50
73322;DHT22;61549;37.044;22.128;2022-09-09T01:50:44;24.60;40.60
73322;DHT22;61549;37.044;22.128;2022-09-09T01:53:10;24.50;40.70
73322;DHT22;61549;37.044;22.128;2022-09-09T01:55:41;24.50;40.60
73322;DHT22;61549;37.044;22.128;2022-09-09T02:03:44;24.50;40.70
73322;DHT22;61549;37.044;22.128;2022-09-09T02:06:26;24.50;41.10
73322;DHT22;61549;37.044;22.128;2022-09-09T02:08:58;24.40;41.50
73322;DHT22;61549;37.044;22.128;2022-09-09T02:11:29;24.40;41.80
73322;DHT22;61549;37.044;22.128;2022-09-09T02:14:01;24.40;41.00
73322;DHT22;61549;37.044;22.128;2022-09-09T02:16:42;24.30;40.50
73322;DHT22;61549;37.044;22.128;2022-09-09T02:19:20;24.40;40.50
73322;DHT22;61549;37.044;22.128;2022-09-09T02:21:52;24.40;40.40
73322;DHT22;61549;37.044;22.128;2022-09-09T02:24:19;24.30;40.90
73322;DHT22;61549;37.044;22.128;2022-09-09T02:26:49;24.30;41.40
73322;DHT22;61549;37.044;22.128;2022-09-09T02:29:33;24.30;41.30
73322;DHT22;61549;37.044;22.128;2022-09-09T02:32:02;24.30;41.20
73322;DHT22;61549;37.044;22.128;2022-09-09T02:34:31;24.20;41.60
73322;DHT22;61549;37.044;22.128;2022-09-09T02:36:59;24.20;41.90
73322;DHT22;61549;37.044;22.128;2022-09-09T02:39:26;24.10;42.00
73322;DHT22;61549;37.044;22.128;2022-09-09T02:41:52;24.10;41.80
73322;DHT22;61549;37.044;22.128;2022-09-09T02:44:19;24.10;41.50
73322;DHT22;61549;37.044;22.128;2022-09-09T02:52:14;24.00;42.80
73322;DHT22;61549;37.044;22.128;2022-09-09T02:54:43;24.00;42.90
73322;DHT22;61549;37.044;22.128;2022-09-09T02:59:38;24.00;42.80
73322;DHT22;61549;37.044;22.128;2022-09-09T03:02:05;24.00;42.90
73322;DHT22;61549;37.044;22.128;2022-09-09T03:04:30;23.90;42.50
73322;DHT22;61549;37.044;22.128;2022-09-09T03:06:58;23.90;42.30
73322;DHT22;61549;37.044;22.128;2022-09-09T03:09:24;24.00;42.20
73322;DHT22;61549;37.044;22.128;2022-09-09T03:11:51;24.00;42.20
73322;DHT22;61549;37.044;22.128;2022-09-09T03:14:17;23.90;41.90
73322;DHT22;61549;37.044;22.128;2022-09-09T03:16:49;24.00;41.60
73322;DHT22;61549;37.044;22.128;2022-09-09T03:19:15;24.00;41.40
73322;DHT22;61549;37.044;22.128;2022-09-09T03:21:41;23.90;41.40
73322;DHT22;61549;37.044;22.128;2022-09-09T03:24:07;23.90;41.70
73322;DHT22;61549;37.044;22.128;2022-09-09T03:26:33;23.90;42.00
73322;DHT22;61549;37.044;22.128;2022-09-09T03:28:59;23.90;41.90
73322;DHT22;61549;37.044;22.128;2022-09-09T03:31:26;23.90;41.80
73322;DHT22;61549;37.044;22.128;2022-09-09T03:33:56;23.80;41.70
73322;DHT22;61549;37.044;22.128;2022-09-09T03:36:24;23.80;41.60
73322;DHT22;61549;37.044;22.128;2022-09-09T03:38:52;23.80;41.70
73322;DHT22;61549;37.044;22.128;2022-09-09T03:41:17;23.80;41.50
73322;DHT22;61549;37.044;22.128;2022-09-09T03:43:43;23.80;41.80
73322;DHT22;61549;37.044;22.128;2022-09-09T03:46:10;23.70;41.80
73322;DHT22;61549;37.044;22.128;2022-09-09T03:48:36;23.70;42.20
73322;DHT22;61549;37.044;22.128;2022-09-09T03:51:02;23.70;42.70
73322;DHT22;61549;37.044;22.128;2022-09-09T03:53:29;23.70;43.00
73322;DHT22;61549;37.044;22.128;2022-09-09T03:55:56;23.70;43.20
73322;DHT22;61549;37.044;22.128;2022-09-09T03:58:25;23.70;43.40
73322;DHT22;61549;37.044;22.128;2022-09-09T04:01:03;23.70;43.50
73322;DHT22;61549;37.044;22.128;2022-09-09T04:03:30;23.70;43.90
73322;DHT22;61549;37.044;22.128;2022-09-09T04:05:57;23.50;44.10
73322;DHT22;61549;37.044;22.128;2022-09-09T04:08:24;23.60;44.20
73322;DHT22;61549;37.044;22.128;2022-09-09T04:10:51;23.50;44.20
73322;DHT22;61549;37.044;22.128;2022-09-09T04:13:18;23.50;44.10
73322;DHT22;61549;37.044;22.128;2022-09-09T04:15:54;23.50;43.40
73322;DHT22;61549;37.044;22.128;2022-09-09T04:18:21;23.60;42.80
73322;DHT22;61549;37.044;22.128;2022-09-09T04:20:48;23.60;42.70
73322;DHT22;61549;37.044;22.128;2022-09-09T04:23:15;23.60;42.20
73322;DHT22;61549;37.044;22.128;2022-09-09T04:25:49;23.60;42.20
73322;DHT22;61549;37.044;22.128;2022-09-09T04:28:16;23.50;42.40
73322;DHT22;61549;37.044;22.128;2022-09-09T04:30:43;23.50;42.50
73322;DHT22;61549;37.044;22.128;2022-09-09T04:33:09;23.50;42.50
73322;DHT22;61549;37.044;22.128;2022-09-09T04:35:36;23.40;42.60
73322;DHT22;61549;37.044;22.128;2022-09-09T04:38:03;23.50;42.80
73322;DHT22;61549;37.044;22.128;2022-09-09T04:40:30;23.50;43.10
73322;DHT22;61549;37.044;22.128;2022-09-09T04:43:02;23.50;43.00
73322;DHT22;61549;37.044;22.128;2022-09-09T04:45:31;23.60;42.90
73322;DHT22;61549;37.044;22.128;2022-09-09T04:47:57;23.50;42.50
73322;DHT22;61549;37.044;22.128;2022-09-09T04:50:23;23.60;42.80
73322;DHT22;61549;37.044;22.128;2022-09-09T04:52:50;23.60;43.20
73322;DHT22;61549;37.044;22.128;2022-09-09T04:55:16;23.60;43.30
73322;DHT22;61549;37.044;22.128;2022-09-09T04:57:42;23.40;43.60
73322;DHT22;61549;37.044;22.128;2022-09-09T05:00:09;23.40;44.00
73322;DHT22;61549;37.044;22.128;2022-09-09T05:02:39;23.50;44.70
73322;DHT22;61549;37.044;22.128;2022-09-09T05:05:06;23.50;45.30
73322;DHT22;61549;37.044;22.128;2022-09-09T05:07:32;23.60;45.50
73322;DHT22;61549;37.044;22.128;2022-09-09T05:09:58;23.60;45.90
73322;DHT22;61549;37.044;22.128;2022-09-09T05:12:24;23.70;45.90
73322;DHT22;61549;37.044;22.128;2022-09-09T05:14:52;23.70;46.00
73322;DHT22;61549;37.044;22.128;2022-09-09T05:17:18;23.70;46.60
73322;DHT22;61549;37.044;22.128;2022-09-09T05:19:44;23.80;47.60
73322;DHT22;61549;37.044;22.128;2022-09-09T05:22:10;23.90;48.20
73322;DHT22;61549;37.044;22.128;2022-09-09T05:24:38;23.90;48.70
73322;DHT22;61549;37.044;22.128;2022-09-09T05:27:04;23.90;49.40
73322;DHT22;61549;37.044;22.128;2022-09-09T05:29:32;24.00;50.00
73322;DHT22;61549;37.044;22.128;2022-09-09T05:31:59;24.00;50.60
73322;DHT22;61549;37.044;22.128;2022-09-09T05:34:25;24.00;50.80
73322;DHT22;61549;37.044;22.128;2022-09-09T05:36:51;24.10;50.30
73322;DHT22;61549;37.044;22.128;2022-09-09T05:39:18;24.10;50.10
73322;DHT22;61549;37.044;22.128;2022-09-09T05:41:44;24.30;51.00
73322;DHT22;61549;37.044;22.128;2022-09-09T05:44:10;24.40;49.80
73322;DHT22;61549;37.044;22.128;2022-09-09T05:46:35;24.50;50.20
73322;DHT22;61549;37.044;22.128;2022-09-09T05:49:02;24.70;51.10
73322;DHT22;61549;37.044;22.128;2022-09-09T05:51:29;24.70;48.00
73322;DHT22;61549;37.044;22.128;2022-09-09T05:53:58;24.90;46.40
73322;DHT22;61549;37.044;22.128;2022-09-09T05:56:27;25.00;44.80
73322;DHT22;61549;37.044;22.128;2022-09-09T05:58:54;25.20;43.70
73322;DHT22;61549;37.044;22.128;2022-09-09T06:01:26;25.30;43.60
73322;DHT22;61549;37.044;22.128;2022-09-09T06:03:53;25.50;43.00
73322;DHT22;61549;37.044;22.128;2022-09-09T06:06:23;25.70;42.40
73322;DHT22;61549;37.044;22.128;2022-09-09T06:08:54;25.90;42.40
73322;DHT22;61549;37.044;22.128;2022-09-09T06:11:28;26.20;43.30
73322;DHT22;61549;37.044;22.128;2022-09-09T06:13:56;26.40;44.50
73322;DHT22;61549;37.044;22.128;2022-09-09T06:16:25;26.60;45.60
73322;DHT22;61549;37.044;22.128;2022-09-09T06:18:52;26.80;45.70
73322;DHT22;61549;37.044;22.128;2022-09-09T06:21:31;27.10;45.40
73322;DHT22;61549;37.044;22.128;2022-09-09T06:23:59;27.30;44.60
73322;DHT22;61549;37.044;22.128;2022-09-09T06:26:28;27.50;44.40
73322;DHT22;61549;37.044;22.128;2022-09-09T06:28:56;27.70;44.40
73322;DHT22;61549;37.044;22.128;2022-09-09T06:31:25;27.80;44.10
73322;DHT22;61549;37.044;22.128;2022-09-09T06:33:53;28.10;44.10
73322;DHT22;61549;37.044;22.128;2022-09-09T06:36:25;28.30;43.70
73322;DHT22;61549;37.044;22.128;2022-09-09T06:38:52;28.50;42.60
73322;DHT22;61549;37.044;22.128;2022-09-09T06:41:21;28.70;42.40
73322;DHT22;61549;37.044;22.128;2022-09-09T06:43:48;28.90;40.90
73322;DHT22;61549;37.044;22.128;2022-09-09T06:46:16;29.10;40.70
73322;DHT22;61549;37.044;22.128;2022-09-09T06:48:43;29.30;41.20
73322;DHT22;61549;37.044;22.128;2022-09-09T06:51:19;29.50;40.80
73322;DHT22;61549;37.044;22.128;2022-09-09T06:53:47;29.60;40.60
73322;DHT22;61549;37.044;22.128;2022-09-09T06:58:42;29.80;41.60
73322;DHT22;61549;37.044;22.128;2022-09-09T07:01:11;29.70;40.80
73322;DHT22;61549;37.044;22.128;2022-09-09T07:03:41;29.90;40.80
73322;DHT22;61549;37.044;22.128;2022-09-09T07:08:39;30.20;39.20
73322;DHT22;61549;37.044;22.128;2022-09-09T07:11:07;30.20;41.20
73322;DHT22;61549;37.044;22.128;2022-09-09T07:13:34;30.00;42.30
73322;DHT22;61549;37.044;22.128;2022-09-09T07:16:11;30.10;42.60
73322;DHT22;61549;37.044;22.128;2022-09-09T07:18:39;30.10;41.60
73322;DHT22;61549;37.044;22.128;2022-09-09T07:21:05;30.30;42.20
73322;DHT22;61549;37.044;22.128;2022-09-09T07:23:32;30.40;42.60
73322;DHT22;61549;37.044;22.128;2022-09-09T07:25:58;30.40;42.40
73322;DHT22;61549;37.044;22.128;2022-09-09T07:28:25;30.50;42.50
73322;DHT22;61549;37.044;22.128;2022-09-09T07:31:00;30.60;42.20
73322;DHT22;61549;37.044;22.128;2022-09-09T07:33:31;30.70;42.30
73322;DHT22;61549;37.044;22.128;2022-09-09T07:36:10;30.60;42.60
73322;DHT22;61549;37.044;22.128;2022-09-09T07:38:39;30.50;42.90
73322;DHT22;61549;37.044;22.128;2022-09-09T07:41:10;30.50;42.50
73322;DHT22;61549;37.044;22.128;2022-09-09T07:43:40;30.30;42.80
73322;DHT22;61549;37.044;22.128;2022-09-09T07:46:07;30.30;42.60
73322;DHT22;61549;37.044;22.128;2022-09-09T07:48:33;30.20;42.60
73322;DHT22;61549;37.044;22.128;2022-09-09T07:51:15;30.10;42.20
73322;DHT22;61549;37.044;22.128;2022-09-09T07:53:45;30.20;42.70
73322;DHT22;61549;37.044;22.128;2022-09-09T07:56:16;30.20;42.90
73322;DHT22;61549;37.044;22.128;2022-09-09T07:58:45;30.20;43.50
73322;DHT22;61549;37.044;22.128;2022-09-09T08:03:39;30.20;43.10
73322;DHT22;61549;37.044;22.128;2022-09-09T08:06:07;30.20;43.00
73322;DHT22;61549;37.044;22.128;2022-09-09T08:08:37;30.30;43.20
73322;DHT22;61549;37.044;22.128;2022-09-09T08:11:10;30.30;43.20
73322;DHT22;61549;37.044;22.128;2022-09-09T08:13:37;30.40;42.40
73322;DHT22;61549;37.044;22.128;2022-09-09T08:16:08;30.40;42.80
73322;DHT22;61549;37.044;22.128;2022-09-09T08:18:34;30.50;43.20
73322;DHT22;61549;37.044;22.128;2022-09-09T08:21:14;30.50;43.30
73322;DHT22;61549;37.044;22.128;2022-09-09T08:23:43;30.50;42.80
73322;DHT22;61549;37.044;22.128;2022-09-09T08:26:14;30.50;42.80
73322;DHT22;61549;37.044;22.128;2022-09-09T08:28:41;30.40;42.80
73322;DHT22;61549;37.044;22.128;2022-09-09T08:31:10;30.40;41.60
73322;DHT22;61549;37.044;22.128;2022-09-09T08:33:36;30.40;42.20
73322;DHT22;61549;37.044;22.128;2022-09-09T08:36:05;30.50;41.90
73322;DHT22;61549;37.044;22.128;2022-09-09T08:38:31;30.40;42.30
73322;DHT22;61549;37.044;22.128;2022-09-09T08:41:12;30.40;43.80
73322;DHT22;61549;37.044;22.128;2022-09-09T08:43:44;30.40;43.90
73322;DHT22;61549;37.044;22.128;2022-09-09T08:46:20;30.30;47.20
73322;DHT22;61549;37.044;22.128;2022-09-09T08:49:13;30.30;46.70
73322;DHT22;61549;37.044;22.128;2022-09-09T08:51:40;30.40;46.10
73322;DHT22;61549;37.044;22.128;2022-09-09T08:54:08;30.40;45.50
73322;DHT22;61549;37.044;22.128;2022-09-09T08:56:36;30.20;46.30
73322;DHT22;61549;37.044;22.128;2022-09-09T08:59:02;30.10;47.00
73322;DHT22;61549;37.044;22.128;2022-09-09T09:04:38;30.50;45.40
73322;DHT22;61549;37.044;22.128;2022-09-09T09:10:46;30.20;44.10
73322;DHT22;61549;37.044;22.128;2022-09-09T09:13:17;30.50;44.90
73322;DHT22;61549;37.044;22.128;2022-09-09T09:15:44;30.70;44.00
73322;DHT22;61549;37.044;22.128;2022-09-09T09:18:13;30.80;42.60
73322;DHT22;61549;37.044;22.128;2022-09-09T09:20:56;30.80;42.40
73322;DHT22;61549;37.044;22.128;2022-09-09T09:23:41;31.00;42.30
73322;DHT22;61549;37.044;22.128;2022-09-09T09:26:10;31.10;40.00
73322;DHT22;61549;37.044;22.128;2022-09-09T09:28:39;30.90;40.50
73322;DHT22;61549;37.044;22.128;2022-09-09T09:31:10;31.00;40.70
73322;DHT22;61549;37.044;22.128;2022-09-09T09:36:12;31.10;41.30
73322;DHT22;61549;37.044;22.128;2022-09-09T09:38:39;31.10;41.30
73322;DHT22;61549;37.044;22.128;2022-09-09T09:41:05;31.20;43.10
73322;DHT22;61549;37.044;22.128;2022-09-09T09:43:33;31.10;43.70
73322;DHT22;61549;37.044;22.128;2022-09-09T09:46:00;31.20;44.20
73322;DHT22;61549;37.044;22.128;2022-09-09T09:48:27;31.30;44.80
73322;DHT22;61549;37.044;22.128;2022-09-09T09:51:00;31.40;45.20
73322;DHT22;61549;37.044;22.128;2022-09-09T09:53:29;31.30;44.40
73322;DHT22;61549;37.044;22.128;2022-09-09T09:56:12;31.20;44.60
73322;DHT22;61549;37.044;22.128;2022-09-09T10:01:28;31.40;44.20
73322;DHT22;61549;37.044;22.128;2022-09-09T10:06:37;31.60;44.50
73322;DHT22;61549;37.044;22.128;2022-09-09T10:09:20;31.60;45.30
73322;DHT22;61549;37.044;22.128;2022-09-09T10:14:45;31.60;42.50
73322;DHT22;61549;37.044;22.128;2022-09-09T10:17:23;31.60;42.80
73322;DHT22;61549;37.044;22.128;2022-09-09T10:22:39;31.80;41.50
73322;DHT22;61549;37.044;22.128;2022-09-09T10:28:13;31.90;40.00
73322;DHT22;61549;37.044;22.128;2022-09-09T10:36:29;32.20;41.50
73322;DHT22;61549;37.044;22.128;2022-09-09T10:42:06;32.30;41.90
73322;DHT22;61549;37.044;22.128;2022-09-09T10:55:57;32.00;41.30
73322;DHT22;61549;37.044;22.128;2022-09-09T11:01:28;32.20;42.80
73322;DHT22;61549;37.044;22.128;2022-09-09T11:04:00;32.20;42.70
73322;DHT22;61549;37.044;22.128;2022-09-09T11:06:34;32.20;39.90
73322;DHT22;61549;37.044;22.128;2022-09-09T11:09:02;32.20;42.40
73322;DHT22;61549;37.044;22.128;2022-09-09T11:17:00;32.30;43.80
73322;DHT22;61549;37.044;22.128;2022-09-09T11:19:34;32.20;44.60
73322;DHT22;61549;37.044;22.128;2022-09-09T11:22:03;32.10;45.90
73322;DHT22;61549;37.044;22.128;2022-09-09T11:24:41;32.20;45.40
73322;DHT22;61549;37.044;22.128;2022-09-09T11:27:14;32.10;45.50
73322;DHT22;61549;37.044;22.128;2022-09-09T11:33:07;31.80;46.30
73322;DHT22;61549;37.044;22.128;2022-09-09T11:38:34;31.60;47.70
73322;DHT22;61549;37.044;22.128;2022-09-09T11:41:08;31.60;47.30
73322;DHT22;61549;37.044;22.128;2022-09-09T11:43:49;31.70;47.60
73322;DHT22;61549;37.044;22.128;2022-09-09T11:46:36;31.80;48.30
73322;DHT22;61549;37.044;22.128;2022-09-09T11:49:05;31.70;48.70
73322;DHT22;61549;37.044;22.128;2022-09-09T11:51:33;31.60;48.10
73322;DHT22;61549;37.044;22.128;2022-09-09T11:54:20;31.80;47.80
73322;DHT22;61549;37.044;22.128;2022-09-09T11:56:48;32.00;48.80
73322;DHT22;61549;37.044;22.128;2022-09-09T11:59:23;31.80;48.10
73322;DHT22;61549;37.044;22.128;2022-09-09T12:04:28;31.80;48.40
73322;DHT22;61549;37.044;22.128;2022-09-09T12:14:55;32.30;47.40
73322;DHT22;61549;37.044;22.128;2022-09-09T12:17:23;32.30;46.20
73322;DHT22;61549;37.044;22.128;2022-09-09T12:20:14;32.40;45.50
73322;DHT22;61549;37.044;22.128;2022-09-09T12:28:18;32.00;45.90
73322;DHT22;61549;37.044;22.128;2022-09-09T12:30:56;32.10;47.50
73322;DHT22;61549;37.044;22.128;2022-09-09T12:33:24;32.00;47.00
73322;DHT22;61549;37.044;22.128;2022-09-09T12:35:56;32.00;46.60
73322;DHT22;61549;37.044;22.128;2022-09-09T12:38:37;32.00;46.90
73322;DHT22;61549;37.044;22.128;2022-09-09T12:41:04;32.10;46.40
73322;DHT22;61549;37.044;22.128;2022-09-09T12:43:30;32.00;46.50
73322;DHT22;61549;37.044;22.128;2022-09-09T12:46:07;32.00;47.20
73322;DHT22;61549;37.044;22.128;2022-09-09T12:48:37;32.10;47.80
73322;DHT22;61549;37.044;22.128;2022-09-09T12:51:16;32.20;47.40
73322;DHT22;61549;37.044;22.128;2022-09-09T12:53:43;32.20;47.80
73322;DHT22;61549;37.044;22.128;2022-09-09T12:56:19;32.20;47.50
73322;DHT22;61549;37.044;22.128;2022-09-09T12:58:49;32.20;47.20
73322;DHT22;61549;37.044;22.128;2022-09-09T13:01:24;32.30;47.20
73322;DHT22;61549;37.044;22.128;2022-09-09T13:03:53;32.30;46.90
73322;DHT22;61549;37.044;22.128;2022-09-09T13:06:23;32.20;47.60
73322;DHT22;61549;37.044;22.128;2022-09-09T13:08:51;32.30;47.40
73322;DHT22;61549;37.044;22.128;2022-09-09T13:11:21;32.50;47.10
73322;DHT22;61549;37.044;22.128;2022-09-09T13:13:56;32.60;47.30
73322;DHT22;61549;37.044;22.128;2022-09-09T13:16:34;32.60;47.10
73322;DHT22;61549;37.044;22.128;2022-09-09T13:19:06;32.60;47.00
73322;DHT22;61549;37.044;22.128;2022-09-09T13:21:37;32.40;47.60
73322;DHT22;61549;37.044;22.128;2022-09-09T13:24:05;32.30;47.50
73322;DHT22;61549;37.044;22.128;2022-09-09T13:26:33;32.30;48.20
73322;DHT22;61549;37.044;22.128;2022-09-09T13:29:17;32.30;48.10
73322;DHT22;61549;37.044;22.128;2022-09-09T13:31:44;32.40;48.50
73322;DHT22;61549;37.044;22.128;2022-09-09T13:34:29;32.40;49.00
73322;DHT22;61549;37.044;22.128;2022-09-09T13:37:06;32.20;48.50
73322;DHT22;61549;37.044;22.128;2022-09-09T13:39:34;32.20;48.90
73322;DHT22;61549;37.044;22.128;2022-09-09T13:42:04;32.20;48.70
73322;DHT22;61549;37.044;22.128;2022-09-09T13:44:39;32.30;48.10
73322;DHT22;61549;37.044;22.128;2022-09-09T13:47:19;32.40;48.20
73322;DHT22;61549;37.044;22.128;2022-09-09T13:49:48;32.40;48.00
73322;DHT22;61549;37.044;22.128;2022-09-09T13:52:16;32.40;47.90
73322;DHT22;61549;37.044;22.128;2022-09-09T13:54:50;32.50;47.70
73322;DHT22;61549;37.044;22.128;2022-09-09T13:57:24;32.50;47.40
73322;DHT22;61549;37.044;22.128;2022-09-09T13:59:52;32.60;47.10
73322;DHT22;61549;37.044;22.128;2022-09-09T14:02:18;32.70;47.00
73322;DHT22;61549;37.044;22.128;2022-09-09T14:04:45;32.60;47.40
73322;DHT22;61549;37.044;22.128;2022-09-09T14:07:15;32.70;47.50
73322;DHT22;61549;37.044;22.128;2022-09-09T14:09:42;32.70;47.50
73322;DHT22;61549;37.044;22.128;2022-09-09T14:12:11;32.60;47.30
73322;DHT22;61549;37.044;22.128;2022-09-09T14:14:38;32.80;47.30
73322;DHT22;61549;37.044;22.128;2022-09-09T14:17:04;32.70;46.80
73322;DHT22;61549;37.044;22.128;2022-09-09T14:19:30;32.70;46.80
73322;DHT22;61549;37.044;22.128;2022-09-09T14:21:57;32.70;46.50
73322;DHT22;61549;37.044;22.128;2022-09-09T14:24:23;32.50;46.20
73322;DHT22;61549;37.044;22.128;2022-09-09T14:26:50;32.60;46.70
73322;DHT22;61549;37.044;22.128;2022-09-09T14:29:16;32.60;46.90
73322;DHT22;61549;37.044;22.128;2022-09-09T14:31:42;32.50;46.50
73322;DHT22;61549;37.044;22.128;2022-09-09T14:34:08;32.40;47.00
73322;DHT22;61549;37.044;22.128;2022-09-09T14:36:37;32.40;47.60
73322;DHT22;61549;37.044;22.128;2022-09-09T14:39:03;32.30;47.70
73322;DHT22;61549;37.044;22.128;2022-09-09T14:41:30;32.30;47.70
73322;DHT22;61549;37.044;22.128;2022-09-09T14:43:56;32.40;47.60
73322;DHT22;61549;37.044;22.128;2022-09-09T14:46:22;32.60;47.00
73322;DHT22;61549;37.044;22.128;2022-09-09T14:48:48;32.60;47.00
73322;DHT22;61549;37.044;22.128;2022-09-09T14:51:18;32.70;47.00
73322;DHT22;61549;37.044;22.128;2022-09-09T14:53:45;32.70;46.90
73322;DHT22;61549;37.044;22.128;2022-09-09T14:56:16;32.80;47.30
73322;DHT22;61549;37.044;22.128;2022-09-09T14:58:42;32.80;46.40
73322;DHT22;61549;37.044;22.128;2022-09-09T15:01:12;32.80;46.00
73322;DHT22;61549;37.044;22.128;2022-09-09T15:03:40;32.60;46.60
73322;DHT22;61549;37.044;22.128;2022-09-09T15:06:14;32.60;46.60
73322;DHT22;61549;37.044;22.128;2022-09-09T15:08:44;32.50;47.10
73322;DHT22;61549;37.044;22.128;2022-09-09T15:11:11;32.50;47.10
73322;DHT22;61549;37.044;22.128;2022-09-09T15:13:39;32.50;47.30
73322;DHT22;61549;37.044;22.128;2022-09-09T15:16:11;32.40;47.40
73322;DHT22;61549;37.044;22.128;2022-09-09T15:18:38;32.30;47.70
73322;DHT22;61549;37.044;22.128;2022-09-09T15:21:13;32.40;47.80
73322;DHT22;61549;37.044;22.128;2022-09-09T15:23:39;32.40;48.00
73322;DHT22;61549;37.044;22.128;2022-09-09T15:26:05;32.40;48.50
73322;DHT22;61549;37.044;22.128;2022-09-09T15:28:33;32.40;48.60
73322;DHT22;61549;37.044;22.128;2022-09-09T15:31:15;32.40;48.90
73322;DHT22;61549;37.044;22.128;2022-09-09T15:34:03;32.40;49.00
73322;DHT22;61549;37.044;22.128;2022-09-09T15:36:42;32.30;49.00
73322;DHT22;61549;37.044;22.128;2022-09-09T15:39:10;32.40;48.80
73322;DHT22;61549;37.044;22.128;2022-09-09T15:41:42;32.40;48.90
73322;DHT22;61549;37.044;22.128;2022-09-09T15:44:09;32.50;48.70
73322;DHT22;61549;37.044;22.128;2022-09-09T15:46:42;32.30;48.70
73322;DHT22;61549;37.044;22.128;2022-09-09T15:49:17;32.30;49.10
73322;DHT22;61549;37.044;22.128;2022-09-09T15:51:52;32.10;49.50
73322;DHT22;61549;37.044;22.128;2022-09-09T15:54:19;32.00;49.60
73322;DHT22;61549;37.044;22.128;2022-09-09T15:56:51;32.10;49.70
73322;DHT22;61549;37.044;22.128;2022-09-09T15:59:17;32.00;50.00
73322;DHT22;61549;37.044;22.128;2022-09-09T16:01:43;32.00;50.20
73322;DHT22;61549;37.044;22.128;2022-09-09T16:04:10;32.00;50.50
73322;DHT22;61549;37.044;22.128;2022-09-09T16:06:38;32.00;50.80
73322;DHT22;61549;37.044;22.128;2022-09-09T16:09:06;31.80;51.30
73322;DHT22;61549;37.044;22.128;2022-09-09T16:11:36;31.70;51.70
73322;DHT22;61549;37.044;22.128;2022-09-09T16:14:06;31.70;51.90
73322;DHT22;61549;37.044;22.128;2022-09-09T16:16:32;31.60;52.20
73322;DHT22;61549;37.044;22.128;2022-09-09T16:19:03;31.70;52.70
73322;DHT22;61549;37.044;22.128;2022-09-09T16:21:34;31.60;52.60
73322;DHT22;61549;37.044;22.128;2022-09-09T16:24:02;31.60;52.60
73322;DHT22;61549;37.044;22.128;2022-09-09T16:26:30;31.60;52.60
73322;DHT22;61549;37.044;22.128;2022-09-09T16:28:56;31.50;52.50
73322;DHT22;61549;37.044;22.128;2022-09-09T16:31:26;31.50;52.90
73322;DHT22;61549;37.044;22.128;2022-09-09T16:33:53;31.50;53.40
73322;DHT22;61549;37.044;22.128;2022-09-09T16:36:25;31.30;53.30
73322;DHT22;61549;37.044;22.128;2022-09-09T16:38:53;31.30;53.70
73322;DHT22;61549;37.044;22.128;2022-09-09T16:41:20;31.20;54.10
73322;DHT22;61549;37.044;22.128;2022-09-09T16:43:46;31.10;54.30
73322;DHT22;61549;37.044;22.128;2022-09-09T16:46:14;31.10;54.50
73322;DHT22;61549;37.044;22.128;2022-09-09T16:48:43;31.10;54.70
73322;DHT22;61549;37.044;22.128;2022-09-09T16:51:20;31.00;54.60
73322;DHT22;61549;37.044;22.128;2022-09-09T16:53:50;30.90;54.50
73322;DHT22;61549;37.044;22.128;2022-09-09T16:56:19;30.90;54.50
73322;DHT22;61549;37.044;22.128;2022-09-09T16:58:56;30.80;54.50
73322;DHT22;61549;37.044;22.128;2022-09-09T17:01:27;30.80;54.90
73322;DHT22;61549;37.044;22.128;2022-09-09T17:03:58;30.70;55.10
73322;DHT22;61549;37.044;22.128;2022-09-09T17:06:24;30.60;55.30
73322;DHT22;61549;37.044;22.128;2022-09-09T17:08:59;30.60;55.50
73322;DHT22;61549;37.044;22.128;2022-09-09T17:11:27;30.50;55.90
73322;DHT22;61549;37.044;22.128;2022-09-09T17:13:57;30.50;56.20
73322;DHT22;61549;37.044;22.128;2022-09-09T17:16:28;30.40;56.60
73322;DHT22;61549;37.044;22.128;2022-09-09T17:18:55;30.30;57.20
73322;DHT22;61549;37.044;22.128;2022-09-09T17:21:24;30.20;57.60
73322;DHT22;61549;37.044;22.128;2022-09-09T17:23:51;30.20;57.90
73322;DHT22;61549;37.044;22.128;2022-09-09T17:26:20;30.20;58.00
73322;DHT22;61549;37.044;22.128;2022-09-09T17:28:46;30.10;58.00
73322;DHT22;61549;37.044;22.128;2022-09-09T17:31:15;30.10;58.20
73322;DHT22;61549;37.044;22.128;2022-09-09T17:33:44;30.10;58.30
73322;DHT22;61549;37.044;22.128;2022-09-09T17:36:17;30.00;58.30
73322;DHT22;61549;37.044;22.128;2022-09-09T17:38:43;29.90;58.20
73322;DHT22;61549;37.044;22.128;2022-09-09T17:41:19;29.90;58.20
73322;DHT22;61549;37.044;22.128;2022-09-09T17:43:46;29.80;58.20